Historyczne dane pomiarowe

Dodano dane terminowe – wersja testowa.

Dane z okresu 1951-2019

Wersja bazy: 1.34 [2019-03-16, lista zmian], aktualizacja planowana na 2019-04-15

Dane meteo z obszaru Polski uzyskane na podstawie danych udostępnionych przez Instytut Meteorologii i Gospodarki Wodnej – Państwowy Instytut Badawczy.

 

Wybierz Datę:    

       

TemperaturaWilgotnośćWiatrCiśnienieOpadyŚniegCzas trwania zjawisk
 Stacja t tx tn tng RH VA  wxwx mslp ppp RRR   cm mm wxwxwxwxwxwxwx
1994-08-14 12.1 17.5 10.2--- 5.3 6.7---- 9.5------------
1994-08-13 15.7 21.3 13.1--- 6.0 5.7---- 1.5------------
1994-08-12 18.5 23.4 15.1--- 4.0 3.3---- 0.2------------
1994-08-11 20.9 26.4 15.5--- 4.3 3.7---- 1.0------------
1994-08-10 21.6 28.0 13.5--- 4.0 4.3---- 0.0------------
1994-08-09 21.3 25.8 17.3--- 4.0 1.3---- 0.0------------
1994-08-08 21.4 26.6 16.9--- 4.3 0.3---- 0.2------------
1994-08-07 22.8 28.7 17.5--- 2.0 1.0---- 0.8------------
1994-08-06 25.7 29.7 20.4--- 2.0 2.3---- 1.6------------
1994-08-05 26.6 32.2 16.7--- 2.3 1.0---- 0.0------------
1994-08-04 22.9 29.0 14.5--- 1.3 1.3---- 0.0------------
1994-08-03 23.9 28.0 18.8--- 5.3 2.0---- 0.0------------
1994-08-02 27.2 32.6 19.2--- 3.0 1.7---- 6.4------------
1994-08-01 27.9 36.8 18.4--- 3.0 1.3---- 0.1------------
1994-07-31 30.3 36.8 13.4 0.0-- 0.3 2.7---- 0.0------------
1994-07-30 28.4 36.6 18.4 0.0-- 1.0 1.3---- 0.0------------
1994-07-29 28.6 36.4 17.3 0.0-- 1.3 1.3---- 0.0------------
1994-07-28 27.2 35.1 16.7 0.0-- 1.3 0.7---- 0.0------------
1994-07-27 27.6 35.1 18.4 0.0-- 1.7 0.7---- 0.0------------
1994-07-26 25.2 34.1 16.3 0.0-- 1.3 1.0---- 0.0------------
1994-07-25 24.9 32.7 14.5 0.0-- 1.3 0.7---- 0.0------------
1994-07-24 21.9 31.3 13.5 0.0-- 1.0 0.0---- 0.0------------
1994-07-23 22.8 30.0 12.5 0.0-- 1.3 0.0---- 0.0------------
1994-07-22 20.8 28.0 11.0 0.0-- 1.3 1.3---- 0.0------------
1994-07-21 21.8 28.4 10.0 5.6-- 0.7 0.3---- 0.0------------
1994-07-20 18.3 25.2 9.0 5.1-- 0.7 1.7---- 0.0------------
1994-07-19 18.1 23.4 11.8 9.4-- 1.7 5.0---- 0.0------------
1994-07-18 19.7 24.2 12.7 11.0-- 3.3 1.3---- 0.0------------
1994-07-17 21.9 26.4 15.3 12.8-- 2.7 1.3---- 0.0------------
1994-07-16 22.7 27.2 17.6 14.1-- 2.0 1.3---- 0.2------------
1994-07-15 26.2 31.2 17.7 13.2-- 2.0 0.7---- 0.0------------
1994-07-14 25.9 31.6 15.7 11.6-- 2.0 0.3---- 0.0------------
1994-07-13 24.1 30.6 15.1 11.0-- 2.0 1.0---- 0.0------------
1994-07-12 23.9 29.0 14.5 11.0-- 1.7 0.7---- 0.0------------
1994-07-11 22.3 32.7 12.9 9.4-- 1.7 1.0---- 0.0------------
1994-07-10 18.8 26.6 11.2 8.7-- 2.3 3.0---- 0.0------------
1994-07-09 16.5 22.3 12.9 12.4-- 3.7 3.7---- 0.0------------
1994-07-08 14.0 21.2 12.5 13.7-- 4.3 2.0---- 30.3------------
1994-07-07 18.5 26.2 9.4 9.1-- 2.0 0.7---- 15.7------------
1994-07-06 17.3 22.9 12.7 10.0-- 3.0 0.7---- 0.0------------
1994-07-05 19.4 25.6 11.2 8.9-- 2.7 1.7---- 0.0------------
1994-07-04 21.3 26.6 11.4 8.5-- 1.3 0.0---- 0.0------------
1994-07-03 18.6 25.8 9.2 5.1-- 2.0 1.0---- 0.0------------
1994-07-02 16.6 23.6 7.6 4.3-- 1.0 2.3---- 0.0------------
1994-07-01 17.3 22.5 10.0 6.2-- 3.3 4.0---- 0.0------------
1994-06-30 19.9 27.2 16.9 16.7-- 3.3 4.3---- 0.0------------
1994-06-29 24.3 32.2 15.7 11.6-- 2.0 2.0---- 1.0------------
1994-06-28 21.5 27.8 13.3 10.6-- 2.0 1.3---- 0.0------------
1994-06-27 22.8 29.0 15.1 12.2-- 1.7 2.0---- 0.0------------
1994-06-26 22.3 30.2 12.9 9.3-- 1.0 1.3---- 0.0------------
1994-06-25 16.6 22.7 5.9 1.1-- 1.7 1.7---- 0.0------------
1994-06-24 13.2 19.3 6.7 3.4-- 2.0 4.0---- 0.0------------
1994-06-23 15.1 19.8 10.6 8.1-- 2.3 13.0---- 0.0------------
1994-06-22 19.1 23.9 15.8 12.0-- 3.3 6.7---- 0.0------------
1994-06-21 16.5 21.7 7.4 3.2-- 0.0 2.0---- 0.0------------
1994-06-20 15.1 18.3 12.9 11.8-- 1.3 6.0---- 0.1------------
1994-06-19 14.5 21.1 10.6 9.4-- 3.3 3.0---- 0.0------------
1994-06-18 12.1 17.3 5.5 2.4-- 2.7 3.7---- 7.4------------
1994-06-17 9.4 14.1 5.9 4.7-- 3.0 6.3---- 2.0------------
1994-06-16 11.6 15.3 9.6 7.7-- 3.7 6.3---- 1.8------------
495.0 ms

 

Źródłem pochodzenia danych jest Instytut Meteorologii i Gospodarki Wodnej – Państwowy Instytut Badawczy. Dane Instytutu Meteorologii i Gospodarki Wodnej – Państwowego Instytutu Badawczego zostały przetworzone.

Dane źródłowe można odnaleźć na stronie https://dane.imgw.pl